createdAt,value
2023-01-09T00:01:41.938Z,11.56
2023-01-09T00:04:09.552Z,11.95
2023-01-09T00:06:37.403Z,12.24
2023-01-09T00:09:04.727Z,12.21
2023-01-09T00:11:31.687Z,11.16
2023-01-09T00:13:59.406Z,9.98
2023-01-09T00:16:26.650Z,8.99
2023-01-09T00:18:54.209Z,8.27
2023-01-09T00:21:21.205Z,7.71
2023-01-09T00:23:48.163Z,7.18
2023-01-09T00:26:18.161Z,6.70
2023-01-09T00:28:46.965Z,6.24
2023-01-09T00:31:14.603Z,6.17
2023-01-09T00:34:03.234Z,7.37
2023-01-09T00:36:30.205Z,8.77
2023-01-09T00:38:57.847Z,9.64
2023-01-09T00:41:31.795Z,10.25
2023-01-09T00:44:04.913Z,10.71
2023-01-09T00:46:35.871Z,11.01
2023-01-09T00:49:05.684Z,11.29
2023-01-09T00:51:32.647Z,11.51
2023-01-09T00:54:00.083Z,11.61
2023-01-09T00:56:27.050Z,11.39
2023-01-09T00:58:54.925Z,10.29
2023-01-09T01:01:22.333Z,9.11
2023-01-09T01:03:49.278Z,8.15
2023-01-09T01:06:34.965Z,7.43
2023-01-09T01:09:01.905Z,6.83
2023-01-09T01:11:29.073Z,6.32
2023-01-09T01:13:56.522Z,5.90
2023-01-09T01:16:23.498Z,5.87
2023-01-09T01:18:51.045Z,7.06
2023-01-09T01:21:18.483Z,8.24
2023-01-09T01:23:45.643Z,9.06
2023-01-09T01:26:15.439Z,9.61
2023-01-09T01:28:43.603Z,10.07
2023-01-09T01:31:17.982Z,10.39
2023-01-09T01:33:45.175Z,10.59
2023-01-09T01:36:12.446Z,10.73
2023-01-09T01:38:39.682Z,10.84
2023-01-09T01:41:07.646Z,10.98
2023-01-09T01:43:52.682Z,11.10
2023-01-09T01:46:19.589Z,11.10
2023-01-09T01:48:48.762Z,11.07
2023-01-09T01:51:18.627Z,11.06
2023-01-09T01:53:51.957Z,11.16
2023-01-09T01:56:25.682Z,11.06
2023-01-09T01:59:08.483Z,9.94
2023-01-09T02:01:41.236Z,8.58
2023-01-09T02:04:09.004Z,7.55
2023-01-09T02:06:37.838Z,6.76
2023-01-09T02:09:06.585Z,6.09
2023-01-09T02:11:34.641Z,5.56
2023-01-09T02:14:02.917Z,5.38
2023-01-09T02:16:48.274Z,6.38
2023-01-09T02:19:24.450Z,7.60
2023-01-09T02:21:51.282Z,8.44
2023-01-09T02:24:57.044Z,9.02
2023-01-09T02:27:37.281Z,9.38
2023-01-09T02:30:16.243Z,9.52
2023-01-09T02:32:59.016Z,9.58
2023-01-09T02:35:34.971Z,9.67
2023-01-09T02:38:15.949Z,9.86
2023-01-09T02:40:53.968Z,10.03
2023-01-09T02:43:21.506Z,9.98
2023-01-09T02:45:48.745Z,9.94
2023-01-09T02:48:15.946Z,10.02
2023-01-09T02:51:01.721Z,10.10
2023-01-09T02:53:45.444Z,10.17
2023-01-09T02:56:41.859Z,10.21
2023-01-09T02:59:28.684Z,10.26
2023-01-09T03:02:07.877Z,10.32
2023-01-09T03:04:48.148Z,10.42
2023-01-09T03:07:31.575Z,10.52
2023-01-09T03:10:09.403Z,10.70
2023-01-09T03:12:38.531Z,10.59
2023-01-09T03:15:10.928Z,9.47
2023-01-09T03:17:43.734Z,8.28
2023-01-09T03:20:21.453Z,7.36
2023-01-09T03:22:56.633Z,6.71
2023-01-09T03:25:28.412Z,6.21
2023-01-09T03:28:10.324Z,5.73
2023-01-09T03:30:44.375Z,5.46
2023-01-09T03:33:17.298Z,6.40
2023-01-09T03:35:51.175Z,7.41
2023-01-09T03:38:18.069Z,8.04
2023-01-09T03:40:45.071Z,8.48
2023-01-09T03:43:12.381Z,8.79
2023-01-09T03:45:39.330Z,9.03
2023-01-09T03:48:06.879Z,9.31
2023-01-09T03:50:33.900Z,9.56
2023-01-09T03:53:00.860Z,9.73
2023-01-09T03:55:27.863Z,9.93
2023-01-09T03:57:54.941Z,9.95
2023-01-09T04:00:22.886Z,9.93
2023-01-09T04:02:49.920Z,9.90
2023-01-09T04:05:17.171Z,9.86
2023-01-09T04:07:44.114Z,9.90
2023-01-09T04:10:11.429Z,9.92
2023-01-09T04:12:38.945Z,10.07
2023-01-09T04:15:06.685Z,10.38
2023-01-09T04:17:33.725Z,10.57
2023-01-09T04:20:00.777Z,10.68
2023-01-09T04:22:27.823Z,10.71
2023-01-09T04:24:57.247Z,10.10
2023-01-09T04:27:27.969Z,8.78
2023-01-09T04:29:54.908Z,7.63
2023-01-09T04:32:22.183Z,6.80
2023-01-09T04:34:49.429Z,6.18
2023-01-09T04:37:16.462Z,5.73
2023-01-09T04:39:46.557Z,5.64
2023-01-09T04:42:13.503Z,6.79
2023-01-09T04:44:40.680Z,8.00
2023-01-09T04:47:07.589Z,8.88
2023-01-09T04:49:34.428Z,9.49
2023-01-09T04:52:01.376Z,9.91
2023-01-09T04:54:28.215Z,10.24
2023-01-09T04:56:55.274Z,10.53
2023-01-09T04:59:22.302Z,10.77
2023-01-09T05:01:49.388Z,11.00
2023-01-09T05:04:16.523Z,11.21
2023-01-09T05:06:43.544Z,11.47
2023-01-09T05:09:10.512Z,11.72
2023-01-09T05:11:37.444Z,11.68
2023-01-09T05:14:04.384Z,10.64
2023-01-09T05:16:32.477Z,9.48
2023-01-09T05:19:00.822Z,8.58
2023-01-09T05:21:28.171Z,7.95
2023-01-09T05:23:55.003Z,7.46
2023-01-09T05:26:26.313Z,7.34
2023-01-09T05:28:56.782Z,8.45
2023-01-09T05:31:25.897Z,9.66
2023-01-09T05:33:53.746Z,10.45
2023-01-09T05:36:20.596Z,11.00
2023-01-09T05:38:47.625Z,11.39
2023-01-09T05:41:14.460Z,11.72
2023-01-09T05:43:41.605Z,12.06
2023-01-09T05:46:08.696Z,12.33
2023-01-09T05:48:35.624Z,12.65
2023-01-09T05:51:02.662Z,12.79
2023-01-09T05:53:29.483Z,11.87
2023-01-09T05:55:56.319Z,10.83
2023-01-09T05:58:23.265Z,9.98
2023-01-09T06:00:50.310Z,9.35
2023-01-09T06:03:17.287Z,8.86
2023-01-09T06:05:44.743Z,8.44
2023-01-09T06:08:11.789Z,8.13
2023-01-09T06:10:38.902Z,8.15
2023-01-09T06:13:06.064Z,9.51
2023-01-09T06:15:33.084Z,10.90
2023-01-09T06:18:00.064Z,11.85
2023-01-09T06:20:27.496Z,12.50
2023-01-09T06:22:54.424Z,12.96
2023-01-09T06:25:21.402Z,13.28
2023-01-09T06:27:49.586Z,13.54
2023-01-09T06:30:18.748Z,13.56
2023-01-09T06:32:49.250Z,12.61
2023-01-09T06:35:21.129Z,11.55
2023-01-09T06:37:51.495Z,10.73
2023-01-09T06:40:21.888Z,10.16
2023-01-09T06:42:50.486Z,10.06
2023-01-09T06:45:18.102Z,11.26
2023-01-09T06:47:45.471Z,12.46
2023-01-09T06:50:12.968Z,13.25
2023-01-09T06:52:40.404Z,13.72
2023-01-09T06:55:08.783Z,14.04
2023-01-09T06:57:35.732Z,14.26
2023-01-09T07:00:04.138Z,14.07
2023-01-09T07:02:31.043Z,13.07
2023-01-09T07:04:57.910Z,12.01
2023-01-09T07:07:24.850Z,11.21
2023-01-09T07:09:52.391Z,10.59
2023-01-09T07:12:19.347Z,10.35
2023-01-09T07:14:46.456Z,11.30
2023-01-09T07:17:14.001Z,12.37
2023-01-09T07:19:41.251Z,13.06
2023-01-09T07:22:08.872Z,13.51
2023-01-09T07:24:35.809Z,13.80
2023-01-09T07:27:03.198Z,13.93
2023-01-09T07:29:30.892Z,14.05
2023-01-09T07:31:58.000Z,14.28
2023-01-09T07:34:24.848Z,14.56
2023-01-09T07:36:52.141Z,14.72
2023-01-09T07:39:19.008Z,14.83
2023-01-09T07:41:46.479Z,14.69
2023-01-09T07:44:14.717Z,13.57
2023-01-09T07:46:42.287Z,12.37
2023-01-09T07:49:10.059Z,11.46
2023-01-09T07:51:39.726Z,10.76
2023-01-09T07:54:07.489Z,10.56
2023-01-09T07:56:34.767Z,11.64
2023-01-09T07:59:02.063Z,12.68
2023-01-09T08:01:29.761Z,13.37
2023-01-09T08:03:57.328Z,13.88
2023-01-09T08:06:24.527Z,14.25
2023-01-09T08:08:51.734Z,14.51
2023-01-09T08:11:18.703Z,14.76
2023-01-09T08:13:45.572Z,15.06
2023-01-09T08:16:12.587Z,15.28
2023-01-09T08:18:39.575Z,15.15
2023-01-09T08:21:07.241Z,13.97
2023-01-09T08:23:34.653Z,12.78
2023-01-09T08:26:01.711Z,11.81
2023-01-09T08:28:29.093Z,11.02
2023-01-09T08:30:56.397Z,10.77
2023-01-09T08:33:23.609Z,11.80
2023-01-09T08:35:50.567Z,12.86
2023-01-09T08:38:17.792Z,13.53
2023-01-09T08:40:47.429Z,13.98
2023-01-09T08:43:33.587Z,14.30
2023-01-09T08:46:20.316Z,14.45
2023-01-09T08:48:50.486Z,14.64
2023-01-09T08:51:17.433Z,14.79
2023-01-09T08:53:44.457Z,14.95
2023-01-09T08:56:11.350Z,15.09
2023-01-09T08:58:38.303Z,14.98
2023-01-09T09:01:07.132Z,13.91
2023-01-09T09:03:34.069Z,12.84
2023-01-09T09:06:01.097Z,12.08
2023-01-09T09:08:28.005Z,11.49
2023-01-09T09:10:54.949Z,11.00
2023-01-09T09:13:21.805Z,10.85
2023-01-09T09:15:48.841Z,11.98
2023-01-09T09:18:15.967Z,13.19
2023-01-09T09:20:43.300Z,13.98
2023-01-09T09:23:10.857Z,14.49
2023-01-09T09:25:38.940Z,14.85
2023-01-09T09:28:07.022Z,15.12
2023-01-09T09:30:34.645Z,15.33
2023-01-09T09:33:05.118Z,15.58
2023-01-09T09:35:34.213Z,15.54
2023-01-09T09:38:05.336Z,14.61
2023-01-09T09:40:52.048Z,13.65
2023-01-09T09:44:06.367Z,12.87
2023-01-09T09:47:12.420Z,12.19
2023-01-09T09:50:14.852Z,12.22
2023-01-09T09:53:10.821Z,13.70
2023-01-09T09:55:40.645Z,14.76
2023-01-09T09:58:38.807Z,15.33
2023-01-09T10:01:08.408Z,15.80
2023-01-09T10:03:49.834Z,16.11
2023-01-09T10:07:10.142Z,16.06
2023-01-09T10:09:59.248Z,14.71
2023-01-09T10:12:45.649Z,13.74
2023-01-09T10:15:30.510Z,13.05
2023-01-09T10:18:27.074Z,12.82
2023-01-09T10:21:02.396Z,13.87
2023-01-09T10:23:51.134Z,14.67
2023-01-09T10:26:30.004Z,15.24
2023-01-09T10:29:22.461Z,15.61
2023-01-09T10:31:53.412Z,15.91
2023-01-09T10:34:39.620Z,16.18
2023-01-09T10:37:06.725Z,16.34
2023-01-09T10:39:48.477Z,16.30
2023-01-09T10:42:53.624Z,15.23
2023-01-09T10:45:20.641Z,13.97
2023-01-09T10:47:49.978Z,13.25
2023-01-09T10:50:23.490Z,12.66
2023-01-09T10:52:53.742Z,12.13
2023-01-09T10:56:00.032Z,11.91
2023-01-09T10:58:27.731Z,13.09
2023-01-09T11:00:57.287Z,14.24
2023-01-09T11:03:28.596Z,14.81
2023-01-09T11:05:58.802Z,15.16
2023-01-09T11:08:42.373Z,15.41
2023-01-09T11:11:11.333Z,15.51
2023-01-09T11:13:43.915Z,15.57
2023-01-09T11:16:10.989Z,15.60
2023-01-09T11:18:50.050Z,15.60
2023-01-09T11:21:38.565Z,15.29
2023-01-09T11:24:25.909Z,13.96
2023-01-09T11:27:12.898Z,12.75
2023-01-09T11:29:44.208Z,12.24
2023-01-09T11:32:23.738Z,13.02
2023-01-09T11:34:50.849Z,13.82
2023-01-09T11:37:29.991Z,14.27
2023-01-09T11:39:59.175Z,14.51
2023-01-09T11:42:47.730Z,14.67
2023-01-09T11:45:23.894Z,14.80
2023-01-09T11:47:51.248Z,14.94
2023-01-09T11:50:24.419Z,15.05
2023-01-09T11:53:15.610Z,15.14
2023-01-09T11:55:43.510Z,14.77
2023-01-09T11:58:17.736Z,13.59
2023-01-09T12:01:03.172Z,12.53
2023-01-09T12:03:49.171Z,11.67
2023-01-09T12:06:26.689Z,11.39
2023-01-09T12:09:05.580Z,12.37
2023-01-09T12:12:02.107Z,13.17
2023-01-09T12:14:31.915Z,13.72
2023-01-09T12:17:07.869Z,14.02
2023-01-09T12:20:03.502Z,14.25
2023-01-09T12:22:57.809Z,14.40
2023-01-09T12:25:35.282Z,14.54
2023-01-09T12:28:33.838Z,14.77
2023-01-09T12:31:22.859Z,14.91
2023-01-09T12:34:08.996Z,15.06
2023-01-09T12:36:54.213Z,14.74
2023-01-09T12:39:47.648Z,13.58
2023-01-09T12:42:44.259Z,12.51
2023-01-09T12:45:32.490Z,11.82
2023-01-09T12:48:17.879Z,12.55
2023-01-09T12:51:10.098Z,13.45
2023-01-09T12:53:56.293Z,14.05
2023-01-09T12:56:32.788Z,14.36
2023-01-09T12:59:32.624Z,14.52
2023-01-09T13:02:24.431Z,14.70
2023-01-09T13:05:02.954Z,14.80
2023-01-09T13:07:41.034Z,14.82
2023-01-09T13:10:24.255Z,14.83
2023-01-09T13:12:53.477Z,14.86
2023-01-09T13:15:28.212Z,14.66
2023-01-09T13:18:22.211Z,13.65
2023-01-09T13:20:57.365Z,12.51
2023-01-09T13:23:27.569Z,11.80
2023-01-09T13:26:02.367Z,12.14
2023-01-09T13:28:36.767Z,12.95
2023-01-09T13:31:43.623Z,13.55
2023-01-09T13:34:21.748Z,13.93
2023-01-09T13:36:56.008Z,14.18
2023-01-09T13:39:24.885Z,14.28
2023-01-09T13:42:24.070Z,14.35
2023-01-09T13:44:57.119Z,14.40
2023-01-09T13:47:28.283Z,14.56
2023-01-09T13:50:02.479Z,14.75
2023-01-09T13:52:43.246Z,14.92
2023-01-09T13:55:15.412Z,14.70
2023-01-09T13:58:15.938Z,13.69
2023-01-09T14:00:48.832Z,12.53
2023-01-09T14:03:38.620Z,11.80
2023-01-09T14:06:16.943Z,11.48
2023-01-09T14:08:45.909Z,12.36
2023-01-09T14:11:20.495Z,13.15
2023-01-09T14:13:55.936Z,13.83
2023-01-09T14:16:25.712Z,14.39
2023-01-09T14:19:00.460Z,14.87
2023-01-09T14:21:44.459Z,15.20
2023-01-09T14:24:20.609Z,15.40
2023-01-09T14:26:50.269Z,15.11
2023-01-09T14:29:29.937Z,13.95
2023-01-09T14:32:21.973Z,12.74
2023-01-09T14:34:54.844Z,11.79
2023-01-09T14:37:22.734Z,11.43
2023-01-09T14:39:51.973Z,12.36
2023-01-09T14:42:25.105Z,13.40
2023-01-09T14:45:31.014Z,14.05
2023-01-09T14:48:06.296Z,14.52
2023-01-09T14:50:51.186Z,14.78
2023-01-09T14:53:34.688Z,15.00
2023-01-09T14:56:06.891Z,15.14
2023-01-09T14:58:37.826Z,14.92
2023-01-09T15:01:10.993Z,13.74
2023-01-09T15:03:41.203Z,12.53
2023-01-09T15:06:20.613Z,11.65
2023-01-09T15:08:56.897Z,10.96
2023-01-09T15:11:24.864Z,10.75
2023-01-09T15:13:54.635Z,11.89
2023-01-09T15:16:25.106Z,12.98
2023-01-09T15:19:00.462Z,13.70
2023-01-09T15:21:33.418Z,14.13
2023-01-09T15:24:18.996Z,14.41
2023-01-09T15:26:53.026Z,14.67
2023-01-09T15:29:20.951Z,14.55
2023-01-09T15:32:13.212Z,13.48
2023-01-09T15:34:43.840Z,12.24
2023-01-09T15:37:28.766Z,11.42
2023-01-09T15:39:58.383Z,10.73
2023-01-09T15:42:47.770Z,10.60
2023-01-09T15:45:28.142Z,11.89
2023-01-09T15:48:14.334Z,12.98
2023-01-09T15:50:42.770Z,13.66
2023-01-09T15:53:18.731Z,14.07
2023-01-09T15:55:49.794Z,14.35
2023-01-09T15:58:30.469Z,14.56
2023-01-09T16:01:01.923Z,14.69
2023-01-09T16:03:29.825Z,14.56
2023-01-09T16:06:05.961Z,13.50
2023-01-09T16:08:43.001Z,12.34
2023-01-09T16:11:31.725Z,11.44
2023-01-09T16:14:25.488Z,10.71
2023-01-09T16:16:54.663Z,10.14
2023-01-09T16:19:52.849Z,10.01
2023-01-09T16:22:26.104Z,11.40
2023-01-09T16:24:55.270Z,12.54
2023-01-09T16:27:30.383Z,13.22
2023-01-09T16:30:03.008Z,13.66
2023-01-09T16:32:33.782Z,13.97
2023-01-09T16:35:07.998Z,14.22
2023-01-09T16:37:36.682Z,14.44
2023-01-09T16:40:18.832Z,14.33
2023-01-09T16:43:02.060Z,13.19
2023-01-09T16:45:33.811Z,12.01
2023-01-09T16:48:03.248Z,11.16
2023-01-09T16:50:30.663Z,10.52
2023-01-09T16:53:00.166Z,10.28
2023-01-09T16:55:27.331Z,11.24
2023-01-09T16:57:55.588Z,12.28
2023-01-09T17:00:22.905Z,12.94
2023-01-09T17:02:50.259Z,13.35
2023-01-09T17:05:17.242Z,13.66
2023-01-09T17:07:44.847Z,13.95
2023-01-09T17:10:23.255Z,14.23
2023-01-09T17:12:50.225Z,14.19
2023-01-09T17:15:17.569Z,13.15
2023-01-09T17:17:44.642Z,12.12
2023-01-09T17:20:17.536Z,11.27
2023-01-09T17:22:44.928Z,10.58
2023-01-09T17:25:36.050Z,10.32
2023-01-09T17:28:23.009Z,11.52
2023-01-09T17:30:50.150Z,12.65
2023-01-09T17:33:19.294Z,13.26
2023-01-09T17:35:46.683Z,13.66
2023-01-09T17:38:15.766Z,13.93
2023-01-09T17:40:44.164Z,14.15
2023-01-09T17:43:12.506Z,14.35
2023-01-09T17:45:43.987Z,14.22
2023-01-09T17:48:19.610Z,13.18
2023-01-09T17:50:48.178Z,12.05
2023-01-09T17:53:15.880Z,11.22
2023-01-09T17:55:42.870Z,10.59
2023-01-09T17:58:25.023Z,10.38
2023-01-09T18:00:52.369Z,11.46
2023-01-09T18:03:21.032Z,12.49
2023-01-09T18:05:48.203Z,13.26
2023-01-09T18:08:15.350Z,13.83
2023-01-09T18:10:44.317Z,14.25
2023-01-09T18:13:11.797Z,14.59
2023-01-09T18:15:43.115Z,14.61
2023-01-09T18:18:11.831Z,13.61
2023-01-09T18:20:43.443Z,12.58
2023-01-09T18:23:11.757Z,11.74
2023-01-09T18:25:43.447Z,11.11
2023-01-09T18:28:15.601Z,10.57
2023-01-09T18:30:47.791Z,10.45
2023-01-09T18:33:15.828Z,11.53
2023-01-09T18:35:43.675Z,12.56
2023-01-09T18:38:11.921Z,13.20
2023-01-09T18:40:39.277Z,13.62
2023-01-09T18:43:08.074Z,13.90
2023-01-09T18:45:38.669Z,14.17
2023-01-09T18:48:08.019Z,14.44
2023-01-09T18:50:35.286Z,14.42
2023-01-09T18:53:02.303Z,13.46
2023-01-09T18:55:29.555Z,12.44
2023-01-09T18:57:56.713Z,11.69
2023-01-09T19:00:24.233Z,11.09
2023-01-09T19:02:51.673Z,10.63
2023-01-09T19:05:18.712Z,10.49
2023-01-09T19:07:45.836Z,11.51
2023-01-09T19:10:13.289Z,12.57
2023-01-09T19:12:40.558Z,13.29
2023-01-09T19:15:11.775Z,13.80
2023-01-09T19:17:39.753Z,14.12
2023-01-09T19:20:08.489Z,14.34
2023-01-09T19:22:35.542Z,14.26
2023-01-09T19:25:02.707Z,13.23
2023-01-09T19:27:30.913Z,12.18
2023-01-09T19:29:58.119Z,11.39
2023-01-09T19:32:25.981Z,10.75
2023-01-09T19:34:53.232Z,10.25
2023-01-09T19:37:20.295Z,10.18
2023-01-09T19:39:47.485Z,11.42
2023-01-09T19:42:15.033Z,12.66
2023-01-09T19:44:42.233Z,13.40
2023-01-09T19:47:11.119Z,13.83
2023-01-09T19:49:38.804Z,14.13
2023-01-09T19:52:06.042Z,14.13
2023-01-09T19:54:33.516Z,13.20
2023-01-09T19:57:00.731Z,12.14
2023-01-09T19:59:28.233Z,11.30
2023-01-09T20:01:55.828Z,10.68
2023-01-09T20:04:23.788Z,10.20
2023-01-09T20:06:51.204Z,9.80
2023-01-09T20:09:27.737Z,9.76
2023-01-09T20:11:54.987Z,11.08
2023-01-09T20:14:23.202Z,12.26
2023-01-09T20:16:54.399Z,12.95
2023-01-09T20:19:21.855Z,13.49
2023-01-09T20:21:49.753Z,13.93
2023-01-09T20:24:17.487Z,14.30
2023-01-09T20:26:46.717Z,14.40
2023-01-09T20:29:14.590Z,13.50
2023-01-09T20:31:42.113Z,12.51
2023-01-09T20:34:12.595Z,11.74
2023-01-09T20:36:40.218Z,11.11
2023-01-09T20:39:08.633Z,10.59
2023-01-09T20:41:36.012Z,10.39
2023-01-09T20:44:07.619Z,11.35
2023-01-09T20:46:38.420Z,12.50
2023-01-09T20:49:08.074Z,13.27
2023-01-09T20:51:36.647Z,13.75
2023-01-09T20:54:04.342Z,14.07
2023-01-09T20:56:32.624Z,14.32
2023-01-09T20:59:00.647Z,14.29
2023-01-09T21:01:28.647Z,13.33
2023-01-09T21:03:57.218Z,12.37
2023-01-09T21:06:26.178Z,11.64
2023-01-09T21:08:53.579Z,11.06
2023-01-09T21:11:22.645Z,10.57
2023-01-09T21:13:51.210Z,10.13
2023-01-09T21:16:21.821Z,10.02
2023-01-09T21:18:49.263Z,11.03
2023-01-09T21:21:19.228Z,12.11
2023-01-09T21:23:48.149Z,12.86
2023-01-09T21:26:17.286Z,13.35
2023-01-09T21:28:49.672Z,13.73
2023-01-09T21:31:20.723Z,14.06
2023-01-09T21:33:48.906Z,14.31
2023-01-09T21:36:16.677Z,14.47
2023-01-09T21:38:44.126Z,14.42
2023-01-09T21:41:29.811Z,13.45
2023-01-09T21:44:15.354Z,12.35
2023-01-09T21:46:58.100Z,11.48
2023-01-09T21:49:27.443Z,10.82
2023-01-09T21:51:55.624Z,10.31
2023-01-09T21:54:24.242Z,10.11
2023-01-09T21:56:52.560Z,11.02
2023-01-09T21:59:20.205Z,12.04
2023-01-09T22:01:49.643Z,12.75
2023-01-09T22:04:19.329Z,13.22
2023-01-09T22:06:46.728Z,13.53
2023-01-09T22:09:14.206Z,13.75
2023-01-09T22:11:43.092Z,13.92
2023-01-09T22:14:15.536Z,13.81
2023-01-09T22:16:44.114Z,12.85
2023-01-09T22:19:12.738Z,11.84
2023-01-09T22:21:39.644Z,11.05
2023-01-09T22:24:07.335Z,10.42
2023-01-09T22:26:34.787Z,9.91
2023-01-09T22:29:01.738Z,9.73
2023-01-09T22:31:33.307Z,10.70
2023-01-09T22:34:02.758Z,11.72
2023-01-09T22:36:31.370Z,12.41
2023-01-09T22:39:00.489Z,12.92
2023-01-09T22:41:30.078Z,13.26
2023-01-09T22:43:57.416Z,13.46
2023-01-09T22:46:24.672Z,13.59
2023-01-09T22:48:52.092Z,13.71
2023-01-09T22:51:21.425Z,13.82
2023-01-09T22:53:49.206Z,13.72
2023-01-09T22:56:19.211Z,12.74
2023-01-09T22:58:52.003Z,11.71
2023-01-09T23:01:20.080Z,10.90
2023-01-09T23:04:12.031Z,10.27
2023-01-09T23:06:38.970Z,9.66
2023-01-09T23:09:06.342Z,9.21
2023-01-09T23:11:53.902Z,9.08
2023-01-09T23:14:22.398Z,10.59
2023-01-09T23:16:49.373Z,11.76
2023-01-09T23:19:16.372Z,12.32
2023-01-09T23:21:44.949Z,12.78
2023-01-09T23:24:14.242Z,13.17
2023-01-09T23:26:42.950Z,13.46
2023-01-09T23:29:11.339Z,13.68
2023-01-09T23:31:38.444Z,13.91
2023-01-09T23:34:08.561Z,13.80
2023-01-09T23:36:36.208Z,12.77
2023-01-09T23:39:04.650Z,11.69
2023-01-09T23:41:50.589Z,10.84
2023-01-09T23:44:17.634Z,10.09
2023-01-09T23:46:44.481Z,9.53
2023-01-09T23:49:12.131Z,9.07
2023-01-09T23:51:39.763Z,8.90
2023-01-09T23:54:09.085Z,9.84
2023-01-09T23:56:36.645Z,10.92
2023-01-09T23:59:07.653Z,11.66
